메인 페이지
METAR-TAF:

METAR-TAF

공항 :

Algona, 아이오와, 미국

위도: 43-05N, 경도: 094-16W, 고도: 372m

현재 날씨관측

예보는 5분 전, 13:35시(UTC)에 발표되었습니다.
11kt
온도 12°C
습도 100%
기압 1004 hPa
고도 200ft 상공 흐림
안개

METAR: KAXA 071335Z AUTO 19011KT M1/4SM FG OVC002 12/12 A2965 RMK A01

시각: 08:40 (13:40 UTC)


TAF: 누락

4,000개 이상의 공항 관측 자료 및 예보 (METAR 및 TAF 보고).

지도상에서 검색 가능한 기상관측소가 노란 점과 빨간 점으로 표시되어 있습니다.

기상관측소 명을 보려면 표시 위로 마우스를 이동하세요.

날씨 관측과 예보를 보려면 클릭하세요.

지도 변경 : 확대하려면 엑스 표시가 있는 녹색 버튼, 축소하려면 빼기 표시가 있는 녹색 버튼, 다음 페이지의 지도를 보려면 녹색 화살표를 클릭하세요.


METAR-TAF: